Time;durP1;ratioP1;P1;durP2;ratioP2;P2;SDS_P1;SDS_P2;PMS_P1;PMS_P2;Temp;Humidity;BMP_temperature;BMP_pressure;BME280_temperature;BME280_humidity;BME280_pressure;Samples;Min_cycle;Max_cycle;Signal;HPM_P1;HPM_P2
2021/08/06 00:00:13;;;;;;;3.63;3.10;;;19.00;99.90;;;;;;4921547;29;20439;-70
2021/08/06 00:02:41;;;;;;;3.70;3.40;;;19.10;99.90;;;;;;4926758;29;20449;-70
2021/08/06 00:05:07;;;;;;;3.23;2.90;;;19.10;99.90;;;;;;4923329;29;20171;-70
2021/08/06 00:07:33;;;;;;;4.03;3.43;;;19.10;99.90;;;;;;4919986;29;20454;-70
2021/08/06 00:09:59;;;;;;;3.30;2.93;;;19.10;99.90;;;;;;4920280;29;20411;-70
2021/08/06 00:12:25;;;;;;;3.60;3.30;;;19.00;99.90;;;;;;4919428;29;20541;-70
2021/08/06 00:14:51;;;;;;;6.13;3.27;;;19.00;99.90;;;;;;4920543;29;20438;-70
2021/08/06 00:17:17;;;;;;;3.80;3.50;;;19.00;99.90;;;;;;4919765;29;20483;-70
2021/08/06 00:19:42;;;;;;;3.27;2.97;;;18.90;99.90;;;;;;4902893;29;20459;-70
2021/08/06 00:22:08;;;;;;;3.70;3.40;;;18.90;99.90;;;;;;4919434;29;20206;-71
2021/08/06 00:24:33;;;;;;;3.33;3.03;;;18.90;99.90;;;;;;4919720;29;20179;-70
2021/08/06 00:26:59;;;;;;;2.77;2.57;;;18.90;99.90;;;;;;4919857;29;20210;-70
2021/08/06 00:29:24;;;;;;;3.47;3.17;;;19.00;99.90;;;;;;4919412;29;20199;-70
2021/08/06 00:31:50;;;;;;;3.83;3.27;;;19.00;99.90;;;;;;4919449;29;20198;-70
2021/08/06 00:34:15;;;;;;;3.53;3.23;;;19.00;99.90;;;;;;4920204;29;20191;-71
2021/08/06 00:36:41;;;;;;;6.73;3.70;;;19.00;99.90;;;;;;4920969;29;20175;-71
2021/08/06 00:39:07;;;;;;;3.37;3.07;;;19.10;99.90;;;;;;4904257;29;20191;-71
2021/08/06 00:41:32;;;;;;;2.67;2.47;;;19.10;99.90;;;;;;4919186;29;20172;-71
2021/08/06 00:43:58;;;;;;;3.50;2.73;;;19.10;99.90;;;;;;4919106;29;20198;-71
2021/08/06 00:46:24;;;;;;;4.00;3.03;;;19.10;99.90;;;;;;4919058;29;20182;-71
2021/08/06 00:48:50;;;;;;;3.33;2.93;;;19.10;99.90;;;;;;4919559;29;20585;-71
2021/08/06 00:51:16;;;;;;;3.13;2.83;;;19.10;99.90;;;;;;4919583;29;20756;-71
2021/08/06 00:53:43;;;;;;;3.30;3.00;;;19.00;99.90;;;;;;4919134;29;20494;-71
2021/08/06 00:56:09;;;;;;;3.27;3.03;;;19.00;99.90;;;;;;4918692;29;20403;-71
2021/08/06 00:58:37;;;;;;;2.70;2.47;;;19.00;99.90;;;;;;4919462;29;20411;-71
2021/08/06 01:01:02;;;;;;;3.33;3.03;;;19.00;99.90;;;;;;4919083;29;20415;-71
2021/08/06 01:04:02;;;;;;;4.27;3.87;;;19.10;99.90;;;;;;4919109;29;20494;-71
2021/08/06 01:06:43;;;;;;;3.30;3.10;;;19.00;99.90;;;;;;4917744;29;20193;-70
2021/08/06 01:09:37;;;;;;;3.40;3.00;;;19.10;99.90;;;;;;4919666;29;20427;-71
2021/08/06 01:12:06;;;;;;;3.60;3.30;;;19.00;99.90;;;;;;4920949;29;20403;-70
2021/08/06 01:14:37;;;;;;;3.73;2.83;;;19.10;99.90;;;;;;4926415;28;20529;-71
2021/08/06 01:17:05;;;;;;;3.63;3.33;;;19.10;99.90;;;;;;4918754;29;20522;-71
2021/08/06 01:19:31;;;;;;;4.00;3.30;;;19.00;99.90;;;;;;4918509;29;20889;-71
2021/08/06 01:22:13;;;;;;;3.43;3.13;;;19.10;99.90;;;;;;4919295;29;20418;-71
2021/08/06 01:24:40;;;;;;;4.73;3.10;;;19.10;99.90;;;;;;4918580;29;20622;-70
2021/08/06 01:27:06;;;;;;;3.00;2.80;;;19.10;99.90;;;;;;4918545;29;20948;-70
2021/08/06 01:29:32;;;;;;;4.00;3.17;;;19.10;99.90;;;;;;4919227;29;20417;-70
2021/08/06 01:31:58;;;;;;;3.37;3.17;;;19.00;99.90;;;;;;4918607;29;20408;-70
2021/08/06 01:34:23;;;;;;;4.03;3.70;;;19.00;99.90;;;;;;4901012;29;20202;-71
2021/08/06 01:36:49;;;;;;;3.97;3.60;;;19.00;99.90;;;;;;4924893;29;20191;-70
2021/08/06 01:39:16;;;;;;;3.50;3.20;;;19.00;99.90;;;;;;4922030;29;20182;-71
2021/08/06 01:42:03;;;;;;;2.97;2.67;;;19.00;99.90;;;;;;4918334;29;20183;-70
2021/08/06 01:44:50;;;;;;;3.53;3.22;;;18.90;99.90;;;;;;4917965;29;20422;-70
2021/08/06 01:47:24;;;;;;;4.30;3.70;;;18.90;99.90;;;;;;4917897;29;20206;-70
2021/08/06 01:50:00;;;;;;;3.20;2.70;;;18.90;99.90;;;;;;4918216;29;20410;-70
2021/08/06 01:52:41;;;;;;;4.20;3.20;;;18.90;99.90;;;;;;4918054;29;20462;-71
2021/08/06 01:55:09;;;;;;;4.43;2.93;;;18.90;99.90;;;;;;4916830;29;20438;-71
2021/08/06 01:57:36;;;;;;;3.50;3.00;;;18.80;99.90;;;;;;4918046;29;20415;-71
2021/08/06 02:00:03;;;;;;;3.07;2.77;;;18.80;99.90;;;;;;4918220;29;20446;-71
2021/08/06 02:02:29;;;;;;;3.30;3.00;;;18.80;99.90;;;;;;4917742;29;21011;-70
2021/08/06 02:04:54;;;;;;;3.30;3.00;;;18.80;99.90;;;;;;4917407;29;20419;-70
2021/08/06 02:07:21;;;;;;;3.43;3.13;;;18.70;99.90;;;;;;4917601;29;20450;-70
2021/08/06 02:09:47;;;;;;;3.30;3.00;;;18.70;99.90;;;;;;4918012;29;20243;-70
2021/08/06 02:12:12;;;;;;;3.47;3.27;;;18.70;99.90;;;;;;4917603;29;20415;-71
2021/08/06 02:14:38;;;;;;;3.80;3.50;;;18.70;99.90;;;;;;4917509;29;20238;-70
2021/08/06 02:17:04;;;;;;;3.60;3.00;;;18.70;99.90;;;;;;4917343;29;20889;-71
2021/08/06 02:19:32;;;;;;;3.63;3.33;;;18.60;99.90;;;;;;4918154;29;20187;-71
2021/08/06 02:22:00;;;;;;;3.23;2.70;;;18.60;99.90;;;;;;4918028;29;20510;-71
2021/08/06 02:24:28;;;;;;;3.40;3.10;;;18.60;99.90;;;;;;4917644;29;20434;-71
2021/08/06 02:26:55;;;;;;;3.43;3.13;;;18.60;99.90;;;;;;4917482;29;20555;-71
2021/08/06 02:29:26;;;;;;;3.87;3.03;;;18.50;99.90;;;;;;4917503;29;20438;-71
2021/08/06 02:31:52;;;;;;;3.40;3.10;;;18.60;99.90;;;;;;4917528;29;20916;-71
2021/08/06 02:34:18;;;;;;;2.90;2.60;;;18.60;99.90;;;;;;4917074;29;20443;-71
2021/08/06 02:36:46;;;;;;;3.80;3.40;;;18.60;99.90;;;;;;4917921;29;20430;-71
2021/08/06 02:39:16;;;;;;;3.90;3.50;;;18.50;99.90;;;;;;4917190;29;20467;-71
2021/08/06 02:41:42;;;;;;;6.00;3.40;;;18.50;99.90;;;;;;4917604;29;20481;-71
2021/08/06 02:44:09;;;;;;;2.97;2.70;;;18.50;99.90;;;;;;4917625;29;20577;-71
2021/08/06 02:46:35;;;;;;;4.27;3.30;;;18.50;99.90;;;;;;4917887;29;20183;-71
2021/08/06 02:49:00;;;;;;;2.97;2.73;;;18.50;99.90;;;;;;4916936;29;20502;-71
2021/08/06 02:51:26;;;;;;;3.40;3.10;;;18.40;99.90;;;;;;4918545;29;20688;-71
2021/08/06 02:53:51;;;;;;;3.30;3.00;;;18.50;99.90;;;;;;4918692;29;20221;-71
2021/08/06 02:56:17;;;;;;;4.13;3.10;;;18.50;99.90;;;;;;4919926;29;20202;-71
2021/08/06 02:58:43;;;;;;;3.30;3.00;;;18.50;99.90;;;;;;4922795;29;20181;-71
2021/08/06 03:01:08;;;;;;;3.40;2.80;;;18.50;99.90;;;;;;4921276;29;20182;-71
2021/08/06 03:03:34;;;;;;;2.80;2.60;;;18.50;99.90;;;;;;4921131;29;20199;-71
2021/08/06 03:05:59;;;;;;;3.40;3.10;;;18.50;99.90;;;;;;4920793;29;20581;-71
2021/08/06 03:08:25;;;;;;;2.77;2.57;;;18.50;99.90;;;;;;4921129;29;20198;-71
2021/08/06 03:10:50;;;;;;;3.30;3.00;;;18.50;99.90;;;;;;4920751;29;20310;-71
2021/08/06 03:13:16;;;;;;;2.93;2.60;;;18.50;99.90;;;;;;4920530;29;20261;-71
2021/08/06 03:15:41;;;;;;;3.77;3.03;;;18.50;99.90;;;;;;4920529;29;20169;-71
2021/08/06 03:18:07;;;;;;;3.35;3.05;;;18.50;99.90;;;;;;4920796;29;20411;-71
2021/08/06 03:20:33;;;;;;;3.23;2.93;;;18.50;99.90;;;;;;4920623;29;20189;-71
2021/08/06 03:22:58;;;;;;;3.30;3.00;;;18.50;99.90;;;;;;4920549;29;20205;-71
2021/08/06 03:25:24;;;;;;;3.77;3.47;;;18.50;99.90;;;;;;4921306;29;20235;-71
2021/08/06 03:27:49;;;;;;;2.90;2.70;;;18.60;99.90;;;;;;4931982;29;20285;-71
2021/08/06 03:30:15;;;;;;;3.10;2.80;;;18.60;99.90;;;;;;4925728;29;20242;-71
2021/08/06 03:32:41;;;;;;;3.40;3.10;;;18.50;99.90;;;;;;4939472;29;20194;-71
2021/08/06 03:35:07;;;;;;;3.13;2.90;;;18.60;99.90;;;;;;4939308;29;20803;-71
2021/08/06 03:37:33;;;;;;;3.37;3.07;;;18.50;99.90;;;;;;4940078;29;20425;-71
2021/08/06 03:39:59;;;;;;;3.27;3.00;;;18.50;99.90;;;;;;4939536;29;20779;-71
2021/08/06 03:42:25;;;;;;;3.10;2.80;;;18.50;99.90;;;;;;4939502;29;20202;-71
2021/08/06 03:44:50;;;;;;;2.57;2.37;;;18.40;99.90;;;;;;4939332;29;20959;-70
2021/08/06 03:47:16;;;;;;;3.60;3.30;;;18.50;99.90;;;;;;4922145;29;20222;-71
2021/08/06 03:49:42;;;;;;;3.33;3.03;;;18.40;99.90;;;;;;4939298;29;20589;-71
2021/08/06 03:52:08;;;;;;;3.50;2.80;;;18.40;99.90;;;;;;4938887;29;20174;-71
2021/08/06 03:54:33;;;;;;;3.57;3.27;;;18.40;99.90;;;;;;4939114;29;20438;-71
2021/08/06 03:56:59;;;;;;;3.60;3.20;;;18.40;99.90;;;;;;4938205;29;20174;-71
2021/08/06 03:59:24;;;;;;;3.23;2.93;;;18.30;99.90;;;;;;4939044;29;20273;-70
2021/08/06 04:01:50;;;;;;;3.60;3.30;;;18.30;99.90;;;;;;4939186;29;20174;-71
2021/08/06 04:04:15;;;;;;;3.30;3.00;;;18.30;99.90;;;;;;4938592;29;20249;-71
2021/08/06 04:06:41;;;;;;;3.70;3.40;;;18.30;99.90;;;;;;4939346;29;20166;-71
2021/08/06 04:09:06;;;;;;;3.73;3.30;;;18.30;99.90;;;;;;4938931;29;20200;-71
2021/08/06 04:11:32;;;;;;;5.63;3.40;;;18.30;99.90;;;;;;4938826;29;20173;-71
2021/08/06 04:13:58;;;;;;;3.30;3.00;;;18.30;99.90;;;;;;4939066;29;20269;-71
2021/08/06 04:16:23;;;;;;;4.00;2.90;;;18.30;99.90;;;;;;4937863;29;20202;-71
2021/08/06 04:18:50;;;;;;;4.63;3.20;;;18.30;99.90;;;;;;4939185;29;20186;-71
2021/08/06 04:21:17;;;;;;;3.73;3.17;;;18.30;99.90;;;;;;4939081;29;20174;-71
2021/08/06 04:23:43;;;;;;;3.50;3.20;;;18.30;99.90;;;;;;4938915;29;20508;-71
2021/08/06 04:26:08;;;;;;;2.80;2.60;;;18.30;99.90;;;;;;4945701;28;20189;-71
2021/08/06 04:28:35;;;;;;;4.33;3.50;;;18.30;99.90;;;;;;4941101;29;20481;-71
2021/08/06 04:31:02;;;;;;;3.37;3.10;;;18.30;99.90;;;;;;4938648;29;20648;-71
2021/08/06 04:33:28;;;;;;;3.20;2.97;;;18.30;99.90;;;;;;4938390;29;20833;-71
2021/08/06 04:35:54;;;;;;;5.30;3.40;;;18.30;99.90;;;;;;4938067;29;20410;-71
2021/08/06 04:38:19;;;;;;;3.93;3.53;;;18.30;99.90;;;;;;4938930;29;20418;-71
2021/08/06 04:40:45;;;;;;;3.60;3.30;;;18.30;99.90;;;;;;4938813;29;20221;-71
2021/08/06 04:43:12;;;;;;;3.23;2.93;;;18.20;99.90;;;;;;4938451;29;20204;-71
2021/08/06 04:45:38;;;;;;;3.20;2.90;;;18.20;99.90;;;;;;4938918;29;20625;-71
2021/08/06 04:48:04;;;;;;;4.17;3.37;;;18.20;99.90;;;;;;4939718;29;20525;-70
2021/08/06 04:50:30;;;;;;;3.80;3.50;;;18.20;99.90;;;;;;4947045;29;20202;-71
2021/08/06 04:52:57;;;;;;;4.27;3.97;;;18.20;99.90;;;;;;4940199;29;20492;-71
2021/08/06 04:55:23;;;;;;;4.07;3.03;;;18.20;99.90;;;;;;4938368;29;20422;-71
2021/08/06 04:57:48;;;;;;;3.53;3.23;;;18.20;99.90;;;;;;4938852;29;20434;-70
2021/08/06 05:00:14;;;;;;;4.00;2.80;;;18.20;99.90;;;;;;4937305;29;20539;-71
2021/08/06 05:02:43;;;;;;;3.47;3.17;;;18.20;99.90;;;;;;4938080;29;20444;-71
2021/08/06 05:05:09;;;;;;;5.40;3.37;;;18.20;99.90;;;;;;4937163;29;20185;-70
2021/08/06 05:07:34;;;;;;;4.37;2.70;;;18.20;99.90;;;;;;4929276;29;20509;-71
2021/08/06 05:10:00;;;;;;;2.80;2.50;;;18.20;99.90;;;;;;4918256;29;20462;-71
2021/08/06 05:12:26;;;;;;;3.50;3.20;;;18.20;99.90;;;;;;4919293;29;20226;-71
2021/08/06 05:14:52;;;;;;;3.07;2.87;;;18.20;99.90;;;;;;4936789;29;20881;-71
2021/08/06 05:17:17;;;;;;;3.53;3.17;;;18.20;99.90;;;;;;4928827;29;20250;-71
2021/08/06 05:19:43;;;;;;;4.03;2.97;;;18.20;99.90;;;;;;4919263;29;20197;-71
2021/08/06 05:22:08;;;;;;;4.30;3.60;;;18.20;99.90;;;;;;4917067;29;20230;-71
2021/08/06 05:24:34;;;;;;;3.90;3.10;;;18.20;99.90;;;;;;4926422;29;20598;-71
2021/08/06 05:26:59;;;;;;;3.50;3.20;;;18.20;99.90;;;;;;4923703;29;20698;-71
2021/08/06 05:29:25;;;;;;;2.90;2.70;;;18.20;99.90;;;;;;4916305;29;20581;-71
2021/08/06 05:31:51;;;;;;;3.90;3.60;;;18.20;99.90;;;;;;4924949;29;20596;-71
2021/08/06 05:34:16;;;;;;;2.77;2.57;;;18.20;99.90;;;;;;4915828;29;20206;-71
2021/08/06 05:36:42;;;;;;;3.03;2.70;;;18.20;99.90;;;;;;4923804;29;20191;-71
2021/08/06 05:39:08;;;;;;;3.57;3.13;;;18.20;99.90;;;;;;4929588;29;20206;-71
2021/08/06 05:41:33;;;;;;;4.30;3.30;;;18.20;99.90;;;;;;4927773;29;20518;-71
2021/08/06 05:43:59;;;;;;;3.80;3.23;;;18.30;99.90;;;;;;4917832;29;20231;-71
2021/08/06 05:46:24;;;;;;;3.67;3.00;;;18.30;99.90;;;;;;4923663;29;20182;-71
2021/08/06 05:48:51;;;;;;;3.30;2.97;;;18.40;99.90;;;;;;4916735;29;20660;-71
2021/08/06 05:51:17;;;;;;;4.20;3.13;;;18.40;99.90;;;;;;4922328;29;20182;-71
2021/08/06 05:53:42;;;;;;;3.37;3.07;;;18.40;99.90;;;;;;4905451;29;20473;-71
2021/08/06 05:56:08;;;;;;;2.97;2.73;;;18.50;99.90;;;;;;4927955;29;20190;-71
2021/08/06 05:58:33;;;;;;;2.40;2.30;;;18.50;99.90;;;;;;4923394;29;20261;-71
2021/08/06 06:01:01;;;;;;;3.13;2.67;;;18.50;99.90;;;;;;4917919;29;20583;-71
2021/08/06 06:03:27;;;;;;;2.83;2.63;;;18.50;99.90;;;;;;4925812;29;20261;-71
2021/08/06 06:05:52;;;;;;;2.43;2.23;;;18.40;99.90;;;;;;4927493;29;20832;-71
2021/08/06 06:08:18;;;;;;;2.20;2.10;;;18.50;99.90;;;;;;4924321;29;20474;-71
2021/08/06 06:10:44;;;;;;;2.83;2.53;;;18.50;99.90;;;;;;4928311;29;20225;-71
2021/08/06 06:13:10;;;;;;;2.53;2.30;;;18.40;99.90;;;;;;4926652;29;20213;-72
2021/08/06 06:15:35;;;;;;;2.47;2.10;;;18.50;99.90;;;;;;4920997;29;20520;-71
2021/08/06 06:18:01;;;;;;;3.53;3.10;;;18.50;99.90;;;;;;4926042;29;20231;-72
2021/08/06 06:20:27;;;;;;;2.40;2.20;;;18.40;99.90;;;;;;4924968;29;20189;-71
2021/08/06 06:22:52;;;;;;;2.37;2.20;;;18.40;99.90;;;;;;4927173;29;20199;-71
2021/08/06 06:25:18;;;;;;;2.83;2.63;;;18.40;99.90;;;;;;4919447;29;20187;-71
2021/08/06 06:28:02;;;;;;;2.63;2.43;;;18.40;99.90;;;;;;4919219;29;20703;-71
2021/08/06 06:30:29;;;;;;;2.43;2.23;;;18.30;99.90;;;;;;4923157;29;20426;-70
2021/08/06 06:32:56;;;;;;;2.50;2.30;;;18.30;99.90;;;;;;4927883;29;20454;-70
2021/08/06 06:35:22;;;;;;;2.53;2.33;;;18.40;99.90;;;;;;4918619;29;20423;-71
2021/08/06 06:37:49;;;;;;;2.93;2.73;;;18.50;99.90;;;;;;4927113;29;20448;-71
2021/08/06 06:40:15;;;;;;;2.50;2.30;;;18.60;99.90;;;;;;4930769;29;20451;-71
2021/08/06 06:42:41;;;;;;;2.20;2.00;;;18.60;99.90;;;;;;4932648;29;20600;-71
2021/08/06 06:45:07;;;;;;;2.27;2.07;;;18.70;99.90;;;;;;4931643;29;20421;-70
2021/08/06 06:47:41;;;;;;;2.93;2.00;;;18.70;99.90;;;;;;4932148;29;20213;-71
2021/08/06 06:50:10;;;;;;;2.80;2.40;;;18.80;99.90;;;;;;4931683;29;20451;-71
2021/08/06 06:52:37;;;;;;;2.50;2.30;;;18.80;99.90;;;;;;4932091;29;20528;-71
2021/08/06 06:55:04;;;;;;;3.47;2.40;;;18.80;99.90;;;;;;4931807;29;20437;-71
2021/08/06 06:57:30;;;;;;;2.20;2.00;;;18.80;99.90;;;;;;4916133;29;20513;-72
2021/08/06 06:59:55;;;;;;;2.20;2.10;;;18.90;99.90;;;;;;4931886;29;20566;-71
2021/08/06 07:02:22;;;;;;;2.20;2.10;;;18.90;99.90;;;;;;4931658;29;20241;-71
2021/08/06 07:04:48;;;;;;;2.43;2.27;;;18.90;99.90;;;;;;4931560;29;20269;-71
2021/08/06 07:07:13;;;;;;;2.43;2.30;;;18.90;99.90;;;;;;4931399;29;20571;-71
2021/08/06 07:09:40;;;;;;;2.60;2.40;;;18.90;99.90;;;;;;4931062;29;20217;-71
2021/08/06 07:12:05;;;;;;;2.67;2.47;;;18.90;99.90;;;;;;4934847;29;20605;-71
2021/08/06 07:14:32;;;;;;;3.00;2.80;;;19.00;99.90;;;;;;4931921;29;20528;-71
2021/08/06 07:16:59;;;;;;;2.50;2.30;;;19.00;99.90;;;;;;4913992;29;20433;-70
2021/08/06 07:19:24;;;;;;;1.93;1.83;;;19.10;99.90;;;;;;4913786;29;20198;-71
2021/08/06 07:21:50;;;;;;;3.67;3.07;;;19.10;99.90;;;;;;4931216;29;20437;-71
2021/08/06 07:24:16;;;;;;;4.13;2.30;;;19.20;99.90;;;;;;4931536;29;20555;-72
2021/08/06 07:26:41;;;;;;;2.03;1.93;;;19.20;99.90;;;;;;4932090;29;20556;-72
2021/08/06 07:29:07;;;;;;;2.47;2.00;;;19.30;99.90;;;;;;4930188;29;20210;-71
2021/08/06 07:31:33;;;;;;;2.00;1.90;;;19.40;99.90;;;;;;4931735;29;20190;-71
2021/08/06 07:33:59;;;;;;;2.00;1.90;;;19.40;99.90;;;;;;4931789;29;20194;-71
2021/08/06 07:36:24;;;;;;;2.20;2.00;;;19.50;99.90;;;;;;4932693;29;20181;-70
2021/08/06 07:38:50;;;;;;;2.00;1.90;;;19.50;99.90;;;;;;4933197;29;20250;-71
2021/08/06 07:41:16;;;;;;;2.13;1.93;;;19.60;99.90;;;;;;4937097;29;20181;-70
2021/08/06 07:43:41;;;;;;;2.07;1.97;;;19.60;99.90;;;;;;4939674;29;20446;-71
2021/08/06 07:46:07;;;;;;;1.97;1.87;;;19.70;99.90;;;;;;4935334;29;20178;-71
2021/08/06 07:48:32;;;;;;;2.00;1.90;;;19.60;99.90;;;;;;4935691;29;20210;-71
2021/08/06 07:50:58;;;;;;;2.50;2.30;;;19.70;99.90;;;;;;4934569;29;20484;-71
2021/08/06 07:53:23;;;;;;;2.30;2.10;;;19.80;99.90;;;;;;4935625;29;20210;-71
2021/08/06 07:55:49;;;;;;;3.57;2.37;;;19.80;99.90;;;;;;4929512;29;20244;-70
2021/08/06 07:58:15;;;;;;;2.00;1.90;;;19.90;99.90;;;;;;4935379;29;20179;-71
2021/08/06 08:00:41;;;;;;;3.10;2.20;;;19.90;99.90;;;;;;4935939;29;21252;-71
2021/08/06 08:03:06;;;;;;;2.97;2.37;;;19.90;99.90;;;;;;4937363;29;20249;-72
2021/08/06 08:05:32;;;;;;;1.90;1.80;;;20.00;99.90;;;;;;4940440;29;20189;-71
2021/08/06 08:07:57;;;;;;;2.30;2.10;;;20.00;99.90;;;;;;4945299;29;20206;-71
2021/08/06 08:10:23;;;;;;;2.30;2.10;;;20.00;99.90;;;;;;4935745;29;20236;-71
2021/08/06 08:12:49;;;;;;;2.43;2.23;;;20.00;99.90;;;;;;4935842;29;20221;-71
2021/08/06 08:15:15;;;;;;;1.70;1.60;;;20.10;99.90;;;;;;4935645;29;20430;-71
2021/08/06 08:17:40;;;;;;;2.00;1.87;;;20.00;99.90;;;;;;4935178;29;20228;-71
2021/08/06 08:20:07;;;;;;;1.80;1.70;;;20.00;99.90;;;;;;4935448;29;20210;-72
2021/08/06 08:22:32;;;;;;;2.40;2.20;;;20.00;99.90;;;;;;4935217;29;20261;-71
2021/08/06 08:24:58;;;;;;;2.20;2.00;;;20.10;99.90;;;;;;4934939;29;20900;-71
2021/08/06 08:27:23;;;;;;;2.33;2.10;;;20.20;99.90;;;;;;4934409;29;20471;-72
2021/08/06 08:29:48;;;;;;;2.47;2.03;;;20.30;99.90;;;;;;4934704;29;20178;-71
2021/08/06 08:32:16;;;;;;;1.90;1.70;;;20.40;99.90;;;;;;4935056;29;20194;-71
2021/08/06 08:34:41;;;;;;;2.00;1.80;;;20.50;99.90;;;;;;4935065;29;20182;-71
2021/08/06 08:37:07;;;;;;;1.93;1.77;;;20.70;99.90;;;;;;4935141;29;20430;-71
2021/08/06 08:39:34;;;;;;;2.23;2.03;;;20.80;99.90;;;;;;4934904;29;20614;-71
2021/08/06 08:42:02;;;;;;;5.23;2.80;;;20.80;99.90;;;;;;4935170;29;20198;-71
2021/08/06 08:44:38;;;;;;;2.43;2.23;;;21.10;99.90;;;;;;4934934;29;20430;-71
2021/08/06 08:47:06;;;;;;;2.93;2.63;;;21.20;99.90;;;;;;4933744;29;20432;-71
2021/08/06 08:49:34;;;;;;;4.50;2.80;;;21.20;99.90;;;;;;4936315;29;20442;-71
2021/08/06 08:52:01;;;;;;;2.80;2.60;;;21.20;99.90;;;;;;4934313;29;20481;-72
2021/08/06 08:54:28;;;;;;;3.10;2.80;;;21.20;99.90;;;;;;4934605;29;20202;-72
2021/08/06 08:56:54;;;;;;;4.67;3.50;;;21.10;99.90;;;;;;4933600;29;20508;-71
2021/08/06 08:59:19;;;;;;;3.30;3.00;;;20.90;99.90;;;;;;4934244;29;20549;-71
2021/08/06 09:01:45;;;;;;;3.30;3.00;;;20.90;99.90;;;;;;4934692;29;20967;-71
2021/08/06 09:04:23;;;;;;;3.33;3.13;;;21.10;99.90;;;;;;4934362;29;20620;-72
2021/08/06 09:06:49;;;;;;;;;;;21.00;99.90;;;;;;4930606;29;25089;-73
2021/08/06 09:09:21;;;;;;;;;;;20.60;99.90;;;;;;4934267;29;19926;-73
2021/08/06 09:11:47;;;;;;;;;;;20.00;99.90;;;;;;4934750;29;19915;-71
2021/08/06 09:14:29;;;;;;;;;;;19.50;99.90;;;;;;4917567;29;19922;-73
2021/08/06 09:16:55;;;;;;;;;;;19.10;99.90;;;;;;4934870;29;19922;-72
2021/08/06 09:19:21;;;;;;;2.77;2.47;;;18.80;99.90;;;;;;4934546;29;20079;-71
2021/08/06 09:21:46;;;;;;;3.77;3.10;;;18.60;99.90;;;;;;4934535;29;20422;-71
2021/08/06 09:24:12;;;;;;;2.80;2.60;;;18.40;99.90;;;;;;4934050;29;20612;-71
2021/08/06 09:26:42;;;;;;;3.43;2.80;;;18.40;99.90;;;;;;4934218;29;20213;-71
2021/08/06 09:29:22;;;;;;;3.30;3.00;;;18.30;99.90;;;;;;4934920;29;20273;-71
2021/08/06 09:31:50;;;;;;;3.60;3.23;;;18.40;99.90;;;;;;4929649;29;20461;-71
2021/08/06 09:34:18;;;;;;;4.67;3.97;;;18.30;99.90;;;;;;4933544;29;20968;-71
2021/08/06 09:37:06;;;;;;;4.33;3.87;;;18.30;99.90;;;;;;4933710;29;20422;-71
2021/08/06 09:39:42;;;;;;;5.83;3.20;;;18.40;99.90;;;;;;4933663;29;20418;-71
2021/08/06 09:42:14;;;;;;;3.97;3.30;;;18.40;99.90;;;;;;4933611;29;20479;-71
2021/08/06 09:44:40;;;;;;;3.17;2.87;;;18.60;99.90;;;;;;4933443;29;20422;-72
2021/08/06 09:47:20;;;;;;;3.70;3.40;;;18.70;99.90;;;;;;4933525;29;20429;-71
2021/08/06 09:49:52;;;;;;;2.97;2.77;;;18.90;99.90;;;;;;4933543;29;20441;-72
2021/08/06 09:52:27;;;;;;;2.90;2.70;;;19.10;99.90;;;;;;4933192;29;20795;-71
2021/08/06 09:54:52;;;;;;;6.00;3.37;;;19.40;99.90;;;;;;4935117;29;20423;-71
2021/08/06 09:57:19;;;;;;;3.60;3.30;;;19.50;99.90;;;;;;4933418;29;21167;-72
2021/08/06 09:59:51;;;;;;;6.70;3.90;;;19.60;99.90;;;;;;4947245;29;20190;-70
2021/08/06 10:02:21;;;;;;;4.40;3.37;;;19.60;99.90;;;;;;4933763;29;20438;-70
2021/08/06 10:05:08;;;;;;;3.80;3.40;;;19.60;99.90;;;;;;4933575;29;20422;-71
2021/08/06 10:07:37;;;;;;;4.00;3.43;;;19.70;99.90;;;;;;4933042;29;20994;-71
2021/08/06 10:10:06;;;;;;;4.10;3.20;;;19.80;99.90;;;;;;4933346;29;20410;-71
2021/08/06 10:12:33;;;;;;;3.70;3.40;;;19.80;99.90;;;;;;4933279;29;20470;-72
2021/08/06 10:14:59;;;;;;;3.90;3.60;;;20.00;99.90;;;;;;4933569;29;20849;-71
2021/08/06 10:17:25;;;;;;;6.20;4.30;;;20.10;99.90;;;;;;4932920;29;20437;-71
2021/08/06 10:19:51;;;;;;;3.40;3.10;;;20.20;99.90;;;;;;4929181;29;20194;-71
2021/08/06 10:22:17;;;;;;;3.07;2.73;;;20.20;99.90;;;;;;4945507;29;20539;-71
2021/08/06 10:24:49;;;;;;;4.05;3.08;;;20.30;99.90;;;;;;4932721;29;20424;-70
2021/08/06 10:27:20;;;;;;;3.60;3.10;;;20.50;99.90;;;;;;4932997;29;20672;-72
2021/08/06 10:29:56;;;;;;;5.57;2.93;;;20.60;99.90;;;;;;4932712;29;20469;-72
2021/08/06 10:32:21;;;;;;;2.90;2.70;;;20.60;99.90;;;;;;4932911;29;20433;-72
2021/08/06 10:35:05;;;;;;;3.97;2.93;;;20.70;99.90;;;;;;4932616;29;20785;-72
2021/08/06 10:38:05;;;;;;;2.90;2.60;;;20.60;99.90;;;;;;4932868;29;20190;-72
2021/08/06 10:40:33;;;;;;;3.33;3.03;;;20.80;99.90;;;;;;4933421;29;20959;-72
2021/08/06 10:43:00;;;;;;;3.20;2.77;;;21.00;99.90;;;;;;4932912;29;20508;-71
2021/08/06 10:45:47;;;;;;;3.40;3.00;;;21.10;99.90;;;;;;4931746;29;20438;-72
2021/08/06 10:48:31;;;;;;;3.03;2.80;;;20.80;99.90;;;;;;4923569;29;20497;-73
2021/08/06 10:51:24;;;;;;;3.73;3.33;;;20.80;99.90;;;;;;4932806;29;20769;-73
2021/08/06 10:53:59;;;;;;;3.50;3.20;;;20.90;99.90;;;;;;4930455;29;20497;-71
2021/08/06 10:56:26;;;;;;;3.40;3.10;;;20.90;99.90;;;;;;4934038;29;20436;-71
2021/08/06 10:58:59;;;;;;;3.23;2.93;;;20.90;99.90;;;;;;4948692;29;20197;-70
2021/08/06 11:01:31;;;;;;;3.67;3.40;;;21.00;99.90;;;;;;4935762;29;20430;-70
2021/08/06 11:04:02;;;;;;;3.97;3.57;;;21.10;99.90;;;;;;4918630;29;20801;-72
2021/08/06 11:06:58;;;;;;;4.83;3.90;;;21.10;99.90;;;;;;4932797;29;20433;-72
2021/08/06 11:11:52;;;;;;;5.90;4.20;;;21.30;99.90;;;;;;4933021;29;20446;-71
2021/08/06 11:14:18;;;;;;;4.70;4.30;;;21.50;99.90;;;;;;4936254;29;20217;-72
2021/08/06 11:17:11;;;;;;;5.07;4.63;;;21.50;99.90;;;;;;4935147;29;21283;-71
2021/08/06 11:19:39;;;;;;;4.30;3.70;;;21.80;99.90;;;;;;4935257;29;20229;-72
2021/08/06 11:22:38;;;;;;;3.80;3.37;;;22.00;99.90;;;;;;4938015;29;20426;-72
2021/08/06 11:25:06;;;;;;;3.30;3.03;;;22.10;99.90;;;;;;4945635;29;20421;-71
2021/08/06 11:27:59;;;;;;;4.20;3.90;;;22.10;99.90;;;;;;4936684;29;20479;-72
2021/08/06 11:30:26;;;;;;;5.97;4.13;;;22.00;99.90;;;;;;4933880;29;20461;-72
2021/08/06 11:33:05;;;;;;;;;;;21.60;99.90;;;;;;4939668;29;20678;-78
2021/08/06 11:35:32;;;;;;;;;;;20.90;99.90;;;;;;4935748;29;19915;-79
2021/08/06 11:37:57;;;;;;;;;;;20.20;99.90;;;;;;4922846;29;19922;-77
2021/08/06 11:40:30;;;;;;;;;;;19.60;99.90;;;;;;4936081;29;19911;-75
2021/08/06 11:42:57;;;;;;;3.90;3.50;;;19.20;99.90;;;;;;4936395;29;20376;-74
2021/08/06 11:45:29;;;;;;;5.32;4.10;;;19.20;99.90;;;;;;4919553;29;20437;-71
2021/08/06 11:48:03;;;;;;;4.77;4.37;;;19.30;99.90;;;;;;4920880;29;20202;-72
2021/08/06 11:50:44;;;;;;;7.17;5.23;;;19.20;99.90;;;;;;4935586;29;20432;-72
2021/08/06 11:53:23;;;;;;;6.13;5.57;;;19.20;99.90;;;;;;4935679;29;20838;-72
2021/08/06 11:55:50;;;;;;;5.73;4.97;;;19.30;99.90;;;;;;4935661;29;20511;-72
2021/08/06 11:58:37;;;;;;;5.70;4.00;;;19.50;99.90;;;;;;4936055;29;20540;-72
2021/08/06 12:01:06;;;;;;;5.23;4.60;;;19.70;99.90;;;;;;4935645;29;20512;-72
2021/08/06 12:03:42;;;;;;;5.43;4.20;;;19.80;99.90;;;;;;4935013;29;20861;-71
2021/08/06 12:06:08;;;;;;;3.53;3.23;;;20.10;99.90;;;;;;4935718;29;20783;-71
2021/08/06 12:08:34;;;;;;;3.73;3.37;;;20.10;99.90;;;;;;4935408;29;20450;-71
2021/08/06 12:11:05;;;;;;;3.60;3.00;;;20.20;99.90;;;;;;4935193;29;20201;-71
2021/08/06 12:13:32;;;;;;;3.90;2.80;;;20.10;99.90;;;;;;4935432;29;20516;-71
2021/08/06 12:16:01;;;;;;;4.53;3.10;;;20.20;99.90;;;;;;4934843;29;20449;-71
2021/08/06 12:18:27;;;;;;;3.23;2.50;;;20.10;99.90;;;;;;4917916;29;20905;-70
2021/08/06 12:20:56;;;;;;;3.40;3.10;;;20.20;99.90;;;;;;4935811;29;20907;-70
2021/08/06 12:23:22;;;;;;;3.13;2.53;;;20.10;99.90;;;;;;4935841;29;20474;-70
2021/08/06 12:26:11;;;;;;;2.97;2.37;;;20.10;99.90;;;;;;4935232;29;20426;-71
2021/08/06 12:28:40;;;;;;;2.30;1.87;;;20.20;99.90;;;;;;4935347;29;20473;-71
2021/08/06 12:31:11;;;;;;;2.10;1.90;;;20.30;99.90;;;;;;4932462;29;20438;-71
2021/08/06 12:33:37;;;;;;;2.37;2.00;;;20.30;99.90;;;;;;4924382;29;20815;-72
2021/08/06 12:36:14;;;;;;;2.57;2.00;;;20.40;99.90;;;;;;4929142;29;20441;-71
2021/08/06 12:38:40;;;;;;;1.50;1.40;;;20.40;99.90;;;;;;4928101;29;20461;-71
2021/08/06 12:41:06;;;;;;;2.20;1.50;;;20.60;99.90;;;;;;4925408;29;20438;-71
2021/08/06 12:43:32;;;;;;;1.60;1.50;;;20.70;99.90;;;;;;4932684;29;20446;-71
2021/08/06 12:46:10;;;;;;;1.67;1.57;;;20.80;99.90;;;;;;4934901;29;20425;-71
2021/08/06 12:48:35;;;;;;;2.40;1.70;;;20.90;99.90;;;;;;4934674;29;20699;-71
2021/08/06 12:51:17;;;;;;;3.10;1.80;;;20.90;99.90;;;;;;4928361;29;20465;-71
2021/08/06 12:53:43;;;;;;;1.47;1.37;;;20.90;99.90;;;;;;4933970;29;20221;-70
2021/08/06 12:56:08;;;;;;;1.53;1.43;;;20.80;99.90;;;;;;4934639;29;20423;-70